メインページ
METAR-TAF:

METAR-TAF

空港 :

エルサルバドル, エルサルバドル

エルサルバドル国際空港

緯度: 13-26N, 経度: 089-03W, 海抜: 25m

現時点の気象観測

当レポートは41分前の16:50(UTC)に作成
南/南西の風 6kt、南/南東から南西の間で変化する
気温 31°C
湿度 71%
気圧 1011 hPa
視程10km以上
高度3000ftの雲はほとんどない
高度3700ftの雲はほとんどない, 塔状積雲.

METAR: MSLP 231650Z 20006KT 150V220 9999 FEW030 FEW037TCU 31/25 Q1011 A2985 RMK TCU TO W

時間: 11:31 (17:31 UTC)

予報

当レポートは8時間6分前の09:25(UTC)に作成
予報は23日の 12時(UTC)から 24日の 12時(UTC)まで有効
北東の風 5kt
視程10km以上
高度2000ftの雲はほとんどない
23日の 1800時(UTC)から
南西の風 8kt
高度2300ftの雲は散在している
高度3700ftの雲はほとんどない, 積乱雲.
23日の 20時(UTC)から 23日の 24時(UTC)まで一時的に
激しい雷雨
24日の 0000時(UTC)から
変向風 2kt
高度2300ftの雲はほとんどない
高度3700ftの雲はほとんどない, 積乱雲.
24日の 03時(UTC)から 24日の 07時(UTC)まで一時的に
北東の風 6kt、最大16ktの突風を伴う
視程: 3000m
高度2000ftの千切れ雲あり
高度3300ftの雲は散在している, 積乱雲.
激しい雷雨, 雨
24日の 0600時(UTC)から
北/北東の風 5kt
視程10km以上
高度6000ftの雲はほとんどない

TAF: MSLP 230925Z 2312/2412 04005KT 9999 FEW020 TX33/2318Z TN23/2410Z FM231800 22008KT SCT023 FEW037CB TEMPO 2320/2324 TS FM240000 VRB02KT FEW023 FEW037CB TEMPO 2403/2407 04006G16KT 3000 TSRA BKN020 SCT033CB FM240600 02005KT 9999 FEW060

4,000以上の空港の気象観測と天気予報(METAR報とTAF報)

利用可能な観測所は地図上に黄色い丸と赤い丸で示す。

丸の上にカーソルを重ねると観測所名を参照できる。

次にクリックすると気象観測と天気予報を参照できる。

マップの切り替え:黒色「×」印の緑ボタンをクリックして拡大、「-」印の緑ボタンをクリックして縮小、緑色の三角印をクリックして隣りの地図に切り替え


METAR-TAF: